createdAt,value
2023-08-03T00:01:56.131Z,100781.47
2023-08-03T00:04:26.917Z,100779.50
2023-08-03T00:06:57.304Z,100790.25
2023-08-03T00:09:28.336Z,100787.94
2023-08-03T00:11:58.726Z,100778.84
2023-08-03T00:14:29.374Z,100778.06
2023-08-03T00:16:59.626Z,100778.22
2023-08-03T00:19:29.932Z,100771.72
2023-08-03T00:22:00.198Z,100768.31
2023-08-03T00:24:30.430Z,100770.06
2023-08-03T00:27:00.724Z,100775.47
2023-08-03T00:29:31.258Z,100782.28
2023-08-03T00:32:03.806Z,100774.63
2023-08-03T00:34:34.248Z,100787.50
2023-08-03T00:37:05.367Z,100795.44
2023-08-03T00:39:35.810Z,100808.81
2023-08-03T00:42:08.021Z,100813.34
2023-08-03T00:44:38.490Z,100814.03
2023-08-03T00:47:10.785Z,100817.44
2023-08-03T00:49:41.129Z,100822.97
2023-08-03T00:52:11.782Z,100822.97
2023-08-03T00:54:42.806Z,100840.50
2023-08-03T00:57:14.972Z,100836.59
2023-08-03T00:59:47.508Z,100837.28
2023-08-03T01:02:17.916Z,100832.69
2023-08-03T01:04:48.314Z,100840.50
2023-08-03T01:07:20.416Z,100833.53
2023-08-03T01:09:51.844Z,100841.19
2023-08-03T01:12:22.642Z,100843.78
2023-08-03T01:14:53.276Z,100838.59
2023-08-03T01:17:24.877Z,100835.16
2023-08-03T01:19:55.571Z,100837.94
2023-08-03T01:22:26.884Z,100837.31
2023-08-03T01:24:57.235Z,100832.09
2023-08-03T01:27:28.157Z,100848.34
2023-08-03T01:29:58.769Z,100858.44
2023-08-03T01:32:29.378Z,100860.22
2023-08-03T01:34:59.910Z,100855.84
2023-08-03T01:37:30.445Z,100854.06
2023-08-03T01:40:00.722Z,100852.59
2023-08-03T01:42:31.159Z,100849.50
2023-08-03T01:45:02.184Z,100856.97
2023-08-03T01:47:32.571Z,100852.78
2023-08-03T01:50:02.916Z,100864.63
2023-08-03T01:52:33.263Z,100866.25
2023-08-03T01:55:03.740Z,100863.16
2023-08-03T01:57:35.153Z,100867.41
2023-08-03T02:00:05.922Z,100872.16
2023-08-03T02:02:43.254Z,100885.63
2023-08-03T02:05:14.857Z,100882.53
2023-08-03T02:07:50.408Z,100875.56
2023-08-03T02:10:21.675Z,100877.97
2023-08-03T02:12:52.285Z,100871.94
2023-08-03T02:15:22.855Z,100878.97
2023-08-03T02:17:53.274Z,100877.50
2023-08-03T02:20:24.713Z,100881.22
2023-08-03T02:22:55.107Z,100886.75
2023-08-03T02:25:27.149Z,100875.69
2023-08-03T02:27:57.804Z,100880.25
2023-08-03T02:30:28.214Z,100879.31
2023-08-03T02:32:58.667Z,100879.94
2023-08-03T02:35:29.000Z,100875.69
2023-08-03T02:38:02.036Z,100877.00
2023-08-03T02:40:32.435Z,100873.44
2023-08-03T02:43:03.415Z,100875.22
2023-08-03T02:45:36.957Z,100872.78
2023-08-03T02:48:09.017Z,100876.47
2023-08-03T02:50:39.453Z,100877.66
2023-08-03T02:53:14.279Z,100881.88
2023-08-03T02:55:48.247Z,100883.34
2023-08-03T02:58:19.458Z,100878.44
2023-08-03T03:00:50.549Z,100871.94
2023-08-03T03:03:21.550Z,100873.69
2023-08-03T03:05:51.872Z,100871.63
2023-08-03T03:08:22.615Z,100871.94
2023-08-03T03:10:53.072Z,100873.38
2023-08-03T03:13:23.501Z,100879.59
2023-08-03T03:15:54.000Z,100867.38
2023-08-03T03:18:25.605Z,100876.81
2023-08-03T03:20:56.079Z,100867.38
2023-08-03T03:23:26.318Z,100863.28
2023-08-03T03:25:56.520Z,100856.13
2023-08-03T03:28:26.890Z,100846.84
2023-08-03T03:30:57.324Z,100853.16
2023-08-03T03:33:27.763Z,100844.88
2023-08-03T03:36:07.408Z,100843.91
2023-08-03T03:38:37.789Z,100839.00
2023-08-03T03:41:08.193Z,100846.84
2023-08-03T03:43:42.927Z,100840.47
2023-08-03T03:46:13.363Z,100830.41
2023-08-03T03:48:45.104Z,100824.84
2023-08-03T03:51:15.441Z,100829.75
2023-08-03T03:53:46.024Z,100817.53
2023-08-03T03:56:18.085Z,100816.56
2023-08-03T03:58:48.437Z,100813.94
2023-08-03T04:01:19.149Z,100811.81
2023-08-03T04:03:53.561Z,100816.38
2023-08-03T04:06:24.182Z,100815.25
2023-08-03T04:08:54.557Z,100819.97
2023-08-03T04:11:24.762Z,100806.94
2023-08-03T04:13:56.747Z,100795.19
2023-08-03T04:16:27.363Z,100791.28
2023-08-03T04:18:57.648Z,100802.69
2023-08-03T04:21:28.034Z,100797.50
2023-08-03T04:23:58.826Z,100794.03
2023-08-03T04:26:29.196Z,100794.03
2023-08-03T04:29:00.119Z,100797.28
2023-08-03T04:31:33.006Z,100798.16
2023-08-03T04:34:04.585Z,100787.72
2023-08-03T04:36:35.247Z,100792.91
2023-08-03T04:39:06.893Z,100793.59
2023-08-03T04:41:37.397Z,100789.19
2023-08-03T04:44:07.875Z,100783.50
2023-08-03T04:46:40.929Z,100792.63
2023-08-03T04:49:13.834Z,100785.13
2023-08-03T04:51:50.738Z,100782.97
2023-08-03T04:54:24.348Z,100775.16
2023-08-03T04:56:54.652Z,100780.69
2023-08-03T04:59:26.099Z,100787.38
2023-08-03T05:01:58.158Z,100784.28
2023-08-03T05:04:28.947Z,100780.19
2023-08-03T05:07:00.452Z,100786.56
2023-08-03T05:09:31.006Z,100782.53
2023-08-03T05:12:01.641Z,100780.53
2023-08-03T05:14:32.292Z,100780.19
2023-08-03T05:17:02.845Z,100785.59
2023-08-03T05:19:33.759Z,100769.66
2023-08-03T05:22:04.213Z,100771.09
2023-08-03T05:24:34.556Z,100761.31
2023-08-03T05:27:06.032Z,100755.94
2023-08-03T05:29:36.373Z,100762.94
2023-08-03T05:32:06.857Z,100765.53
2023-08-03T05:34:37.131Z,100766.19
2023-08-03T05:37:09.443Z,100763.75
2023-08-03T05:39:39.761Z,100764.75
2023-08-03T05:42:14.992Z,100769.63
2023-08-03T05:44:45.431Z,100758.88
2023-08-03T05:47:18.908Z,100758.88
2023-08-03T05:49:49.626Z,100747.16
2023-08-03T05:52:19.888Z,100745.47
2023-08-03T05:54:52.728Z,100737.00
2023-08-03T05:57:23.014Z,100744.16
2023-08-03T05:59:53.145Z,100728.09
2023-08-03T06:02:37.665Z,100727.44
2023-08-03T06:05:10.505Z,100721.88
2023-08-03T06:07:42.105Z,100716.66
2023-08-03T06:10:13.831Z,100721.88
2023-08-03T06:12:44.146Z,100729.19
2023-08-03T06:15:14.485Z,100720.25
2023-08-03T06:17:44.851Z,100718.94
2023-08-03T06:20:18.360Z,100715.22
2023-08-03T06:22:48.780Z,100729.53
2023-08-03T06:25:20.238Z,100719.25
2023-08-03T06:27:50.566Z,100715.34
2023-08-03T06:30:21.784Z,100707.03
2023-08-03T06:32:53.744Z,100703.59
2023-08-03T06:35:36.076Z,100696.78
2023-08-03T06:38:08.202Z,100689.94
2023-08-03T06:40:39.629Z,100683.28
2023-08-03T06:43:10.287Z,100684.41
2023-08-03T06:45:40.910Z,100675.44
2023-08-03T06:48:12.340Z,100673.50
2023-08-03T06:50:42.657Z,100677.72
2023-08-03T06:53:13.555Z,100685.97
2023-08-03T06:55:44.087Z,100681.81
2023-08-03T06:58:14.743Z,100686.03
2023-08-03T07:00:45.372Z,100684.09
2023-08-03T07:03:16.628Z,100669.25
2023-08-03T07:05:47.347Z,100659.19
2023-08-03T07:08:17.688Z,100658.63
2023-08-03T07:10:48.023Z,100658.28
2023-08-03T07:13:18.225Z,100660.75
2023-08-03T07:15:48.572Z,100647.28
2023-08-03T07:18:18.953Z,100651.13
2023-08-03T07:20:49.367Z,100642.63
2023-08-03T07:23:19.622Z,100644.78
2023-08-03T07:25:49.903Z,100643.19
2023-08-03T07:28:20.304Z,100640.75
2023-08-03T07:30:50.654Z,100635.06
2023-08-03T07:33:20.944Z,100630.75
2023-08-03T07:35:51.214Z,100614.81
2023-08-03T07:38:21.323Z,100612.06
2023-08-03T07:40:51.538Z,100601.56
2023-08-03T07:43:21.822Z,100606.84
2023-08-03T07:45:52.140Z,100603.06
2023-08-03T07:48:22.399Z,100601.78
2023-08-03T07:50:52.709Z,100600.91
2023-08-03T07:53:23.082Z,100597.00
2023-08-03T07:55:53.395Z,100587.59
2023-08-03T07:58:23.721Z,100595.38
2023-08-03T08:00:53.910Z,100599.28
2023-08-03T08:03:24.318Z,100610.06
2023-08-03T08:05:54.705Z,100599.47
2023-08-03T08:08:25.112Z,100597.19
2023-08-03T08:11:10.466Z,100600.16
2023-08-03T08:13:43.234Z,100611.50
2023-08-03T08:16:17.096Z,100592.66
2023-08-03T08:18:47.469Z,100596.47
2023-08-03T08:21:17.679Z,100589.44
2023-08-03T08:23:48.051Z,100590.03
2023-08-03T08:26:20.581Z,100577.09
2023-08-03T08:29:03.428Z,100574.69
2023-08-03T08:34:09.811Z,100573.53
2023-08-03T08:36:40.104Z,100575.63
2023-08-03T08:39:10.559Z,100582.31
2023-08-03T08:41:44.861Z,100602.72
2023-08-03T08:44:18.507Z,100599.97
2023-08-03T08:46:49.080Z,100604.41
2023-08-03T08:51:58.134Z,100600.16
2023-08-03T08:57:12.370Z,100601.19
2023-08-03T09:00:05.908Z,100600.38
2023-08-03T09:02:36.820Z,100610.50
2023-08-03T09:06:23.820Z,100594.22
2023-08-03T09:08:18.214Z,100580.59
2023-08-03T09:10:59.485Z,100581.75
2023-08-03T09:13:35.441Z,100581.75
2023-08-03T09:16:06.322Z,100598.53
2023-08-03T09:18:36.705Z,100594.50
2023-08-03T09:29:03.440Z,100653.34
2023-08-03T09:31:34.463Z,100675.03
2023-08-03T09:34:04.824Z,100723.22
2023-08-03T09:36:35.104Z,100717.06
2023-08-03T09:44:26.775Z,100680.66
2023-08-03T09:46:58.108Z,100664.66
2023-08-03T09:49:29.511Z,100649.25
2023-08-03T09:55:09.963Z,100630.56
2023-08-03T09:57:45.889Z,100639.81
2023-08-03T10:00:17.532Z,100643.19
2023-08-03T10:03:04.397Z,100647.91
2023-08-03T10:05:39.930Z,100635.22
2023-08-03T10:08:23.767Z,100640.28
2023-08-03T10:11:03.589Z,100623.53
2023-08-03T10:13:37.906Z,100626.09
2023-08-03T10:16:08.564Z,100618.94
2023-08-03T10:21:14.402Z,100632.13
2023-08-03T10:24:21.747Z,100634.06
2023-08-03T10:27:01.064Z,100643.84
2023-08-03T10:32:55.049Z,100662.56
2023-08-03T10:35:42.316Z,100668.41
2023-08-03T10:38:23.342Z,100665.34
2023-08-03T10:41:25.622Z,100674.16
2023-08-03T10:44:12.642Z,100667.13
2023-08-03T10:46:53.021Z,100671.03
2023-08-03T10:49:31.564Z,100669.78
2023-08-03T10:52:28.383Z,100669.78
2023-08-03T10:55:00.546Z,100668.50
2023-08-03T10:57:33.054Z,100671.56
2023-08-03T11:00:06.726Z,100680.69
2023-08-03T11:02:40.323Z,100681.16
2023-08-03T11:05:11.170Z,100677.09
2023-08-03T11:07:43.993Z,100677.94
2023-08-03T11:10:17.375Z,100679.38
2023-08-03T11:12:48.600Z,100683.31
2023-08-03T11:15:21.686Z,100694.84
2023-08-03T11:17:55.925Z,100689.19
2023-08-03T11:20:26.477Z,100702.53
2023-08-03T11:22:56.861Z,100693.09
2023-08-03T11:25:27.298Z,100705.44
2023-08-03T11:27:57.613Z,100706.56
2023-08-03T13:50:34.619Z,100906.16
2023-08-03T13:53:05.193Z,100900.00
2023-08-03T13:55:35.511Z,100906.50
2023-08-03T13:58:08.040Z,100914.81
2023-08-03T14:03:16.005Z,100924.94
2023-08-03T14:18:51.260Z,100955.88
2023-08-03T14:21:49.619Z,100958.00
2023-08-03T14:24:12.183Z,100965.31
2023-08-03T14:26:42.633Z,100966.63
2023-08-03T14:29:13.665Z,100963.03
2023-08-03T14:31:44.435Z,100975.69
2023-08-03T14:34:15.068Z,100982.06
2023-08-03T14:36:45.404Z,100972.47
2023-08-03T14:39:17.368Z,100986.63
2023-08-03T14:41:49.568Z,100995.91
2023-08-03T14:44:20.851Z,100983.53
2023-08-03T14:49:30.583Z,100996.25
2023-08-03T14:54:34.019Z,101012.22
2023-08-03T14:57:04.686Z,101014.00
2023-08-03T14:59:35.003Z,101003.06
2023-08-03T15:02:05.474Z,101011.22
2023-08-03T15:04:38.466Z,101017.25
2023-08-03T15:07:09.342Z,101007.97
2023-08-03T15:09:39.695Z,101012.88
2023-08-03T15:12:10.654Z,101014.94
2023-08-03T15:14:48.475Z,101020.03
2023-08-03T15:17:26.024Z,101019.88
2023-08-03T15:20:00.366Z,101018.75
2023-08-03T15:22:31.539Z,101025.56
2023-08-03T15:25:03.629Z,101029.31
2023-08-03T15:27:35.244Z,101024.75
2023-08-03T15:30:32.314Z,101028.00
2023-08-03T15:35:31.001Z,101036.28
2023-08-03T15:38:03.599Z,101034.34
2023-08-03T15:40:52.666Z,101037.13
2023-08-03T15:43:30.093Z,101041.38
2023-08-03T15:46:15.925Z,101044.28
2023-08-03T15:51:24.172Z,101049.50
2023-08-03T15:54:04.190Z,101044.59
2023-08-03T15:56:41.668Z,101047.34
2023-08-03T15:59:12.390Z,101052.44
2023-08-03T16:01:42.733Z,101047.06
2023-08-03T16:04:13.082Z,101048.84
2023-08-03T16:06:43.474Z,101055.03
2023-08-03T16:09:13.938Z,101057.28
2023-08-03T16:14:17.865Z,101047.06
2023-08-03T16:16:48.552Z,101040.06
2023-08-03T16:19:19.255Z,101043.47
2023-08-03T16:21:49.552Z,101038.41
2023-08-03T16:24:19.817Z,101028.50
2023-08-03T16:26:50.306Z,101036.16
2023-08-03T16:29:21.093Z,101032.41
2023-08-03T16:31:54.056Z,101030.47
2023-08-03T16:34:27.945Z,101028.50
2023-08-03T16:36:58.766Z,101027.06
2023-08-03T16:39:29.760Z,101023.28
2023-08-03T16:42:00.104Z,101024.78
2023-08-03T16:44:30.385Z,101015.97
2023-08-03T16:47:00.706Z,101020.03
2023-08-03T16:49:31.242Z,101024.09
2023-08-03T16:52:01.695Z,101013.69
2023-08-03T16:54:32.251Z,101010.44
2023-08-03T16:57:02.652Z,101016.78
2023-08-03T16:59:32.973Z,101014.00
2023-08-03T17:02:03.229Z,101013.03
2023-08-03T17:04:37.100Z,101007.00
2023-08-03T17:07:07.937Z,101009.78
2023-08-03T17:09:38.969Z,101002.16
2023-08-03T17:12:10.938Z,100994.34
2023-08-03T17:14:42.105Z,100995.94
2023-08-03T17:17:12.690Z,100994.81
2023-08-03T17:19:42.984Z,100993.84
2023-08-03T17:22:14.686Z,100994.16
2023-08-03T17:24:44.997Z,100988.13
2023-08-03T17:27:15.388Z,100980.00
2023-08-03T17:29:46.396Z,100975.13
2023-08-03T17:32:16.692Z,100977.91
2023-08-03T17:34:47.040Z,100979.38
2023-08-03T17:37:17.359Z,100974.47
2023-08-03T17:39:47.630Z,100980.81
2023-08-03T17:42:18.340Z,100982.28
2023-08-03T17:44:49.766Z,100974.28
2023-08-03T17:47:19.758Z,100975.13
2023-08-03T17:49:49.956Z,100976.88
2023-08-03T17:52:20.384Z,100971.53
2023-08-03T17:54:50.739Z,100977.06
2023-08-03T17:57:21.286Z,100971.22
2023-08-03T17:59:53.362Z,100968.41
2023-08-03T18:02:23.826Z,100973.47
2023-08-03T18:04:54.946Z,100966.31
2023-08-03T18:07:25.304Z,100957.22
2023-08-03T18:09:56.429Z,100956.38
2023-08-03T18:12:26.452Z,100957.22
2023-08-03T18:14:56.583Z,100949.72
2023-08-03T18:17:27.063Z,100952.16
2023-08-03T18:19:58.177Z,100950.34
2023-08-03T18:22:29.320Z,100937.19
2023-08-03T18:24:59.616Z,100941.59
2023-08-03T18:27:30.066Z,100942.91
2023-08-03T18:30:00.830Z,100930.88
2023-08-03T18:32:31.328Z,100931.97
2023-08-03T18:35:01.740Z,100923.69
2023-08-03T18:37:32.063Z,100929.72
2023-08-03T18:40:02.589Z,100930.03
2023-08-03T18:42:32.996Z,100922.38
2023-08-03T18:45:05.476Z,100918.00
2023-08-03T18:47:36.750Z,100922.38
2023-08-03T18:50:07.474Z,100909.38
2023-08-03T18:52:39.982Z,100914.91
2023-08-03T18:55:10.986Z,100911.00
2023-08-03T18:57:41.383Z,100914.09
2023-08-03T19:00:12.525Z,100910.34
2023-08-03T19:02:42.895Z,100913.09
2023-08-03T19:05:13.776Z,100908.88
2023-08-03T19:07:44.113Z,100907.56
2023-08-03T19:10:14.556Z,100904.00
2023-08-03T19:12:44.883Z,100901.22
2023-08-03T19:15:18.349Z,100897.66
2023-08-03T19:17:48.713Z,100894.41
2023-08-03T19:20:19.563Z,100898.47
2023-08-03T19:22:49.860Z,100892.63
2023-08-03T19:25:20.605Z,100891.47
2023-08-03T19:27:51.188Z,100881.72
2023-08-03T19:30:23.160Z,100885.13
2023-08-03T19:32:53.484Z,100887.25
2023-08-03T19:35:23.878Z,100888.38
2023-08-03T19:37:54.260Z,100881.72
2023-08-03T19:40:24.841Z,100878.16
2023-08-03T19:42:56.450Z,100877.66
2023-08-03T19:45:27.043Z,100884.13
2023-08-03T19:47:58.729Z,100885.31
2023-08-03T19:50:30.414Z,100883.81
2023-08-03T19:55:44.735Z,100872.13
2023-08-03T19:58:15.570Z,100872.44
2023-08-03T20:03:23.171Z,100873.25
2023-08-03T20:08:46.752Z,100867.88
2023-08-03T20:11:17.324Z,100869.19
2023-08-03T20:21:27.731Z,100871.16
2023-08-03T20:23:58.316Z,100851.16
2023-08-03T20:26:35.469Z,100864.97
2023-08-03T20:29:21.399Z,100857.66
2023-08-03T20:31:52.084Z,100845.91
2023-08-03T20:34:22.504Z,100853.41
2023-08-03T20:36:52.966Z,100856.03
2023-08-03T20:39:35.033Z,100863.81
2023-08-03T20:49:49.620Z,100871.16
2023-08-03T20:52:20.123Z,100868.38
2023-08-03T20:54:50.499Z,100870.34
2023-08-03T20:57:22.269Z,100862.84
2023-08-03T20:59:53.078Z,100864.31
2023-08-03T21:02:24.280Z,100870.00
2023-08-03T21:04:54.660Z,100865.13
2023-08-03T21:07:25.086Z,100856.19
2023-08-03T21:12:29.128Z,100856.03
2023-08-03T21:15:00.043Z,100863.97
2023-08-03T21:17:30.533Z,100866.75
2023-08-03T21:20:06.119Z,100861.22
2023-08-03T21:22:36.418Z,100861.56
2023-08-03T21:25:07.100Z,100851.63
2023-08-03T21:27:37.397Z,100853.25
2023-08-03T21:30:08.380Z,100853.56
2023-08-03T21:35:13.949Z,100861.56
2023-08-03T21:37:48.091Z,100862.03
2023-08-03T21:40:18.648Z,100861.88
2023-08-03T21:42:50.008Z,100863.19
2023-08-03T21:45:20.510Z,100862.03
2023-08-03T21:47:50.885Z,100867.09
2023-08-03T21:50:21.519Z,100868.22
2023-08-03T21:52:51.836Z,100871.78
2023-08-03T21:55:22.644Z,100869.84
2023-08-03T21:57:52.810Z,100872.13
2023-08-03T22:00:23.916Z,100862.69
2023-08-03T22:02:54.374Z,100867.41
2023-08-03T22:05:26.098Z,100861.88
2023-08-03T22:07:56.470Z,100863.00
2023-08-03T22:10:27.670Z,100868.38
2023-08-03T22:12:58.051Z,100866.75
2023-08-03T22:15:28.756Z,100870.81
2023-08-03T22:17:59.381Z,100874.25
2023-08-03T22:20:31.184Z,100879.09
2023-08-03T22:23:01.894Z,100885.13
2023-08-03T22:25:32.324Z,100881.56
2023-08-03T22:28:02.781Z,100882.69
2023-08-03T22:30:33.443Z,100898.16
2023-08-03T22:33:03.938Z,100904.47
2023-08-03T22:35:34.712Z,100911.81
2023-08-03T22:38:05.426Z,100910.69
2023-08-03T22:40:36.167Z,100915.88
2023-08-03T22:43:06.709Z,100911.97
2023-08-03T22:45:42.135Z,100914.59
2023-08-03T22:48:12.739Z,100920.13
2023-08-03T22:50:43.298Z,100918.16
2023-08-03T22:53:13.712Z,100911.00
2023-08-03T22:55:44.101Z,100913.59
2023-08-03T22:58:45.885Z,100918.47
2023-08-03T23:01:21.019Z,100916.84
2023-08-03T23:03:52.201Z,100924.94
2023-08-03T23:06:25.422Z,100923.16
2023-08-03T23:08:55.829Z,100925.59
2023-08-03T23:11:26.288Z,100932.75
2023-08-03T23:14:01.470Z,100938.94
2023-08-03T23:16:32.020Z,100943.31
2023-08-03T23:19:02.587Z,100950.16
2023-08-03T23:21:33.067Z,100946.59
2023-08-03T23:24:03.442Z,100943.63
2023-08-03T23:26:33.979Z,100950.00
2023-08-03T23:29:04.246Z,100955.34
2023-08-03T23:31:35.530Z,100964.78
2023-08-03T23:34:06.593Z,100960.03
2023-08-03T23:36:37.079Z,100969.16
2023-08-03T23:39:07.843Z,100976.63
2023-08-03T23:41:38.307Z,100973.56
2023-08-03T23:44:08.627Z,100988.81
2023-08-03T23:46:38.974Z,100979.41
2023-08-03T23:49:09.320Z,100998.25
2023-08-03T23:51:39.597Z,100996.63
2023-08-03T23:54:10.035Z,101006.03
2023-08-03T23:56:40.306Z,101004.41
2023-08-03T23:59:10.735Z,101007.88
